Time;durP1;ratioP1;P1;durP2;ratioP2;P2;SDS_P1;SDS_P2;PMS_P1;PMS_P2;Temp;Humidity;BMP_temperature;BMP_pressure;BME280_temperature;BME280_humidity;BME280_pressure;Samples;Min_cycle;Max_cycle;Signal;HPM_P1;HPM_P2
2023/07/03 05:43:23;;;;;;;;;5.33;4.67;;;;;21.92;50.37;101162.94;5068374;27;45747;-75
2023/07/03 05:45:49;;;;;;;;;4.33;4.33;;;;;22.08;50.08;101171.28;5060340;27;45814;-72
2023/07/03 05:48:15;;;;;;;;;7.00;5.33;;;;;22.28;49.89;101171.22;5066514;27;45541;-71
2023/07/03 05:50:40;;;;;;;;;8.00;5.67;;;;;22.46;49.57;101171.25;5059778;28;45609;-71
2023/07/03 05:53:05;;;;;;;;;5.67;5.67;;;;;22.64;49.16;101168.59;5059944;28;46418;-72
2023/07/03 05:55:31;;;;;;;;;4.67;4.67;;;;;22.82;48.93;101167.78;5053765;28;45622;-72
2023/07/03 05:57:56;;;;;;;;;6.00;5.00;;;;;22.96;48.80;101174.50;5067360;27;45749;-72
2023/07/03 06:00:22;;;;;;;;;6.00;6.00;;;;;23.11;48.29;101161.28;5059467;27;45437;-72
2023/07/03 06:02:51;;;;;;;;;5.33;4.33;;;;;23.27;48.31;101159.72;5053248;27;45977;-72
2023/07/03 06:05:17;;;;;;;;;4.33;4.33;;;;;23.41;48.59;101163.75;5059676;28;45424;-71
2023/07/03 06:07:43;;;;;;;;;5.00;5.00;;;;;23.52;48.09;101154.50;5059125;28;45480;-72
2023/07/03 06:10:10;;;;;;;;;4.67;4.67;;;;;23.61;47.72;101174.38;5066822;28;46223;-71
2023/07/03 06:12:36;;;;;;;;;5.00;5.00;;;;;23.70;47.52;101168.00;5051973;28;47119;-71
2023/07/03 06:15:02;;;;;;;;;7.33;5.33;;;;;23.78;47.38;101170.78;5058504;28;45547;-71
2023/07/03 06:17:28;;;;;;;;;6.67;6.00;;;;;23.86;47.19;101169.97;5068275;28;45641;-71
2023/07/03 06:19:54;;;;;;;;;6.00;5.00;;;;;23.93;47.13;101170.19;5063556;27;45646;-70
2023/07/03 06:22:20;;;;;;;;;9.67;8.00;;;;;23.98;47.02;101178.69;5060598;28;46041;-69
2023/07/03 06:24:45;;;;;;;;;6.33;3.67;;;;;24.06;47.38;101181.44;5062591;28;45762;-69
2023/07/03 06:27:12;;;;;;;;;9.00;5.00;;;;;24.12;47.85;101182.69;5068735;27;45721;-69
2023/07/03 06:29:37;;;;;;;;;5.00;4.33;;;;;24.18;48.13;101181.19;5059845;27;45748;-69
2023/07/03 06:32:03;;;;;;;;;5.67;4.00;;;;;24.24;47.91;101182.41;5060803;27;45692;-70
2023/07/03 06:34:29;;;;;;;;;5.00;5.00;;;;;24.27;47.19;101180.19;5065001;28;45538;-71
2023/07/03 06:36:54;;;;;;;;;9.00;5.33;;;;;24.32;46.92;101174.31;5059144;27;45844;-71
2023/07/03 06:39:20;;;;;;;;;5.33;5.33;;;;;24.37;46.89;101181.94;5055496;28;45849;-71
2023/07/03 06:41:45;;;;;;;;;9.33;6.00;;;;;24.41;46.58;101175.19;5064885;27;47002;-71
2023/07/03 06:44:14;;;;;;;;;4.00;4.00;;;;;24.41;45.74;101162.47;5066362;27;45579;-72
2023/07/03 06:46:39;;;;;;;;;5.00;4.00;;;;;24.41;45.16;101172.47;5068600;28;45457;-71
2023/07/03 06:49:05;;;;;;;;;3.00;3.00;;;;;24.39;45.08;101175.34;5062086;27;45655;-71
2023/07/03 06:51:30;;;;;;;;;6.67;6.00;;;;;24.35;44.86;101171.25;5060294;27;45501;-72
2023/07/03 06:53:56;;;;;;;;;2.67;2.67;;;;;24.36;45.57;101170.22;5053542;28;45740;-71
2023/07/03 06:56:22;;;;;;;;;6.33;4.33;;;;;24.34;44.74;101167.72;5048939;28;45526;-70
2023/07/03 06:58:48;;;;;;;;;2.00;2.00;;;;;24.32;44.50;101166.16;5050760;28;45431;-71
2023/07/03 07:01:15;;;;;;;;;3.00;3.00;;;;;24.27;44.52;101163.94;5050336;28;47178;-71
2023/07/03 07:03:40;;;;;;;;;6.00;5.00;;;;;24.24;45.19;101166.13;5052453;28;45535;-71
2023/07/03 07:06:15;;;;;;;;;6.00;4.33;;;;;24.26;45.16;101169.50;5053663;28;46766;-71
2023/07/03 07:08:41;;;;;;;;;3.33;2.00;;;;;24.25;46.01;101174.09;5047415;28;45527;-69
2023/07/03 07:11:12;;;;;;;;;4.33;3.00;;;;;24.28;46.11;101170.22;5049605;28;46212;-69
2023/07/03 07:13:44;;;;;;;;;2.33;2.33;;;;;24.32;46.45;101180.56;5050530;28;45548;-70
2023/07/03 07:16:32;;;;;;;;;6.00;5.00;;;;;24.36;46.11;101181.06;5051496;28;45528;-69
2023/07/03 07:19:01;;;;;;;;;5.67;4.33;;;;;24.38;45.64;101173.66;5054414;28;45454;-71
2023/07/03 07:21:29;;;;;;;;;4.00;4.00;;;;;24.44;45.72;101185.72;5041518;28;45815;-71
2023/07/03 07:24:01;;;;;;;;;4.67;3.00;;;;;24.46;45.73;101178.25;5052464;28;45664;-71
2023/07/03 07:26:33;;;;;;;;;6.00;4.33;;;;;24.48;45.52;101177.06;5048065;28;45512;-70
2023/07/03 07:29:03;;;;;;;;;5.00;4.33;;;;;24.53;45.67;101181.16;5054466;28;45554;-70
2023/07/03 07:31:29;;;;;;;;;3.00;3.00;;;;;24.56;45.39;101184.38;5053552;28;46052;-70
2023/07/03 07:33:55;;;;;;;;;4.33;3.33;;;;;24.57;45.50;101183.34;5045944;28;45605;-70
2023/07/03 07:36:22;;;;;;;;;3.33;3.33;;;;;24.61;45.57;101181.19;5053359;28;45427;-69
2023/07/03 07:38:51;;;;;;;;;5.00;3.67;;;;;24.61;45.75;101175.75;5050822;28;45438;-72
2023/07/03 07:41:17;;;;;;;;;3.33;3.33;;;;;24.66;45.17;101181.53;5052832;28;46310;-71
2023/07/03 07:43:42;;;;;;;;;3.00;3.00;;;;;24.69;45.41;101183.91;5053072;28;45435;-72
2023/07/03 07:46:08;;;;;;;;;3.00;3.00;;;;;24.74;45.23;101188.84;5044171;28;45699;-71
2023/07/03 07:48:33;;;;;;;;;6.00;4.00;;;;;24.75;45.16;101179.69;5048467;28;45666;-70
2023/07/03 07:51:07;;;;;;;;;4.67;3.33;;;;;24.76;44.98;101180.53;5046439;28;46119;-70
2023/07/03 07:53:33;;;;;;;;;3.00;2.00;;;;;24.79;45.31;101181.06;5044571;28;45737;-70
2023/07/03 07:55:58;;;;;;;;;4.67;4.33;;;;;24.81;45.15;101189.88;5052632;28;45347;-70
2023/07/03 07:58:24;;;;;;;;;4.33;2.67;;;;;24.84;44.88;101192.28;5052694;28;45449;-70
2023/07/03 08:00:51;;;;;;;;;4.00;3.00;;;;;24.85;45.25;101193.97;5049338;28;46079;-70
2023/07/03 08:03:17;;;;;;;;;1.00;1.00;;;;;24.88;44.83;101186.53;5050691;28;45488;-70
2023/07/03 08:05:42;;;;;;;;;3.00;3.00;;;;;24.90;45.05;101192.63;5052084;28;45895;-70
2023/07/03 08:08:07;;;;;;;;;4.67;4.33;;;;;24.90;44.57;101188.06;5051747;28;45389;-73
2023/07/03 08:10:33;;;;;;;;;5.33;5.00;;;;;24.83;45.28;101177.03;5038123;28;56896;-71
2023/07/03 08:12:59;;;;;;;;;4.00;4.00;;;;;24.93;45.08;101185.00;5044534;28;53623;-69
2023/07/03 08:15:24;;;;;;;;;3.00;3.00;;;;;24.93;44.77;101193.16;5047809;28;45519;-70
2023/07/03 08:17:50;;;;;;;;;4.33;3.67;;;;;24.95;44.65;101190.25;5047083;28;45746;-71
2023/07/03 08:20:17;;;;;;;;;4.33;4.33;;;;;24.97;45.00;101199.09;5048616;28;46224;-71
2023/07/03 08:22:42;;;;;;;;;3.00;3.00;;;;;24.98;44.83;101195.38;5038682;28;45778;-71
2023/07/03 08:25:09;;;;;;;;;4.00;4.00;;;;;24.99;44.78;101205.22;5043190;28;45770;-72
2023/07/03 08:27:35;;;;;;;;;4.00;4.00;;;;;24.98;44.70;101198.91;5047037;28;45318;-71
2023/07/03 08:30:00;;;;;;;;;4.33;3.33;;;;;25.02;44.46;101193.16;5048067;28;45704;-69
2023/07/03 08:32:26;;;;;;;;;4.33;3.00;;;;;25.04;44.59;101191.13;5047989;28;45375;-70
2023/07/03 08:34:51;;;;;;;;;3.33;3.00;;;;;25.05;44.53;101195.56;5042511;28;45903;-72
2023/07/03 08:37:16;;;;;;;;;3.67;2.67;;;;;25.03;44.33;101189.41;5053075;28;45526;-71
2023/07/03 08:39:42;;;;;;;;;4.00;4.00;;;;;25.06;44.04;101189.09;5039188;28;48527;-72
2023/07/03 08:42:23;;;;;;;;;7.00;5.00;;;;;25.06;44.37;101184.50;5041084;28;45615;-71
2023/07/03 08:44:49;;;;;;;;;3.00;3.00;;;;;25.06;44.32;101178.22;5039230;28;45546;-71
2023/07/03 08:47:20;;;;;;;;;4.33;4.00;;;;;25.07;44.42;101164.50;5041919;28;45687;-71
2023/07/03 08:49:47;;;;;;;;;6.00;3.00;;;;;25.09;43.99;101175.19;5046486;28;46114;-71
2023/07/03 08:52:20;;;;;;;;;4.00;3.67;;;;;25.11;43.91;101179.44;5040888;28;45690;-71
2023/07/03 08:54:48;;;;;;;;;2.67;2.00;;;;;25.13;43.99;101179.25;5042863;28;45544;-71
2023/07/03 08:57:14;;;;;;;;;3.00;3.00;;;;;25.15;43.98;101177.22;5034639;28;45493;-71
2023/07/03 08:59:39;;;;;;;;;3.33;3.00;;;;;25.16;44.06;101183.50;5039332;28;45818;-72
2023/07/03 09:02:40;;;;;;;;;5.00;4.33;;;;;25.15;44.04;101176.38;5043930;28;51496;-72
2023/07/03 09:05:08;;;;;;;;;4.00;4.00;;;;;25.17;43.82;101179.78;5045052;28;46370;-75
2023/07/03 09:07:41;;;;;;;;;3.00;3.00;;;;;25.18;44.18;101189.63;5050274;28;45862;-74
2023/07/03 09:10:13;;;;;;;;;4.00;4.00;;;;;25.19;44.27;101184.03;5048243;28;45494;-74
2023/07/03 09:12:47;;;;;;;;;5.00;5.00;;;;;25.19;44.60;101197.59;5048498;28;45406;-75
2023/07/03 09:15:18;;;;;;;;;2.33;1.33;;;;;25.21;44.35;101194.69;5052077;28;45893;-74
2023/07/03 09:17:45;;;;;;;;;4.00;2.67;;;;;25.22;44.80;101194.53;5048758;28;45574;-74
2023/07/03 09:20:14;;;;;;;;;3.00;2.67;;;;;25.24;44.77;101199.81;5039838;28;45518;-74
2023/07/03 09:22:46;;;;;;;;;5.00;3.33;;;;;25.22;45.03;101189.09;5046427;28;45541;-74
2023/07/03 09:25:23;;;;;;;;;2.00;2.00;;;;;25.26;44.74;101184.19;5046866;28;45847;-74
2023/07/03 09:27:53;;;;;;;;;2.33;2.33;;;;;25.27;44.76;101185.88;5040784;28;45545;-74
2023/07/03 09:30:18;;;;;;;;;3.00;3.00;;;;;25.30;45.06;101185.53;5041148;28;46414;-74
2023/07/03 09:32:44;;;;;;;;;3.67;3.67;;;;;25.31;44.74;101186.38;5058799;28;45648;-75
2023/07/03 09:35:19;;;;;;;;;3.00;3.00;;;;;25.34;44.57;101186.88;5032839;28;46351;-75
2023/07/03 09:37:51;;;;;;;;;4.00;4.00;;;;;25.36;45.05;101184.88;5048928;28;45483;-73
2023/07/03 09:40:26;;;;;;;;;3.00;3.00;;;;;25.36;45.05;101190.31;5042549;28;46222;-74
2023/07/03 09:42:52;;;;;;;;;2.33;2.33;;;;;25.39;45.05;101189.13;5050321;28;45726;-73
2023/07/03 09:45:22;;;;;;;;;3.67;3.00;;;;;25.39;45.31;101180.97;5041039;28;45533;-73
2023/07/03 09:47:57;;;;;;;;;5.00;3.00;;;;;25.40;45.11;101182.66;5041913;28;45611;-74
2023/07/03 09:50:34;;;;;;;;;2.33;2.33;;;;;25.44;45.14;101194.88;5044913;28;45545;-72
2023/07/03 09:53:01;;;;;;;;;3.00;3.00;;;;;25.46;45.18;101186.56;5033688;28;45399;-75
2023/07/03 09:55:27;;;;;;;;;6.00;4.33;;;;;25.46;45.14;101195.53;5044039;28;46799;-75
2023/07/03 09:57:52;;;;;;;;;3.33;3.00;;;;;25.48;45.17;101196.25;5040460;28;45647;-75
2023/07/03 10:00:21;;;;;;;;;2.00;2.00;;;;;25.49;45.30;101188.91;5042148;28;46507;-75
2023/07/03 10:02:55;;;;;;;;;3.33;3.33;;;;;25.51;45.07;101198.59;5034334;28;45506;-75
2023/07/03 10:05:32;;;;;;;;;3.00;3.00;;;;;25.51;45.15;101198.59;5042285;28;45676;-75
2023/07/03 10:08:03;;;;;;;;;3.67;3.67;;;;;25.52;45.32;101203.03;5040035;28;45445;-74
2023/07/03 10:10:33;;;;;;;;;4.00;3.00;;;;;25.53;45.37;101204.72;5048356;28;45439;-75
2023/07/03 10:13:06;;;;;;;;;2.67;2.67;;;;;25.55;45.56;101211.84;5043783;28;46452;-76
2023/07/03 10:15:36;;;;;;;;;2.33;2.33;;;;;25.53;45.45;101202.00;5051893;28;45403;-76
2023/07/03 10:18:10;;;;;;;;;2.33;2.33;;;;;25.56;45.36;101203.56;5048059;28;45501;-75
2023/07/03 10:20:41;;;;;;;;;2.67;2.67;;;;;25.56;45.50;101206.28;5032162;28;46008;-74
2023/07/03 10:23:10;;;;;;;;;3.00;3.00;;;;;25.54;45.17;101200.13;5040736;28;45858;-79
2023/07/03 10:25:40;;;;;;;;;3.00;1.67;;;;;25.60;45.26;101209.50;5046961;28;45470;-78
2023/07/03 10:28:19;;;;;;;;;2.33;2.33;;;;;25.60;45.67;101207.66;5048119;28;45496;-79
2023/07/03 10:30:49;;;;;;;;;3.00;3.00;;;;;25.63;45.42;101211.88;5051851;28;46035;-78
2023/07/03 10:33:19;;;;;;;;;3.33;2.00;;;;;25.61;45.09;101197.59;5051403;28;45506;-79
2023/07/03 10:35:49;;;;;;;;;5.00;3.33;;;;;25.63;45.11;101201.03;5044370;28;45548;-80
2023/07/03 10:38:39;;;;;;;;;2.00;2.00;;;;;25.67;45.04;101209.66;5048097;28;45950;-79
2023/07/03 10:41:12;;;;;;;;;4.00;4.00;;;;;25.68;45.35;101212.22;5049794;28;45532;-79
2023/07/03 10:43:46;;;;;;;;;4.00;4.00;;;;;25.68;44.28;101203.22;5043421;28;45413;-73
2023/07/03 10:46:23;;;;;;;;;6.67;3.67;;;;;25.67;43.89;101196.94;5041668;28;45532;-73
2023/07/03 10:48:51;;;;;;;;;5.00;3.00;;;;;25.65;43.64;101194.38;5050255;28;45471;-74
2023/07/03 10:51:38;;;;;;;;;5.00;4.00;;;;;25.64;43.45;101192.69;5052067;28;45383;-73
2023/07/03 10:54:15;;;;;;;;;3.67;3.67;;;;;25.59;43.18;101184.19;5038830;28;45745;-74
2023/07/03 10:56:44;;;;;;;;;3.00;3.00;;;;;25.62;43.27;101191.13;5039441;28;45806;-73
2023/07/03 10:59:15;;;;;;;;;4.00;4.00;;;;;25.62;43.52;101186.56;5045805;28;45761;-73
2023/07/03 11:02:06;;;;;;;;;4.00;4.00;;;;;25.58;43.59;101187.09;5042197;28;46713;-73
2023/07/03 11:04:43;;;;;;;;;6.33;5.33;;;;;25.59;43.29;101195.06;5048101;28;45670;-73
2023/07/03 11:07:17;;;;;;;;;4.00;4.00;;;;;25.56;43.51;101192.69;5042673;28;45613;-73
2023/07/03 11:09:48;;;;;;;;;4.67;3.67;;;;;25.56;43.83;101200.00;5045321;28;45517;-73
2023/07/03 11:12:29;;;;;;;;;4.33;3.00;;;;;25.54;42.97;101197.41;5041241;28;45397;-73
2023/07/03 11:15:06;;;;;;;;;3.33;3.00;;;;;25.52;43.08;101191.31;5040560;28;45432;-73
2023/07/03 11:17:47;;;;;;;;;5.00;5.00;;;;;25.49;43.52;101186.19;5042217;28;45790;-73
2023/07/03 11:20:25;;;;;;;;;3.33;3.33;;;;;25.48;43.37;101190.81;5040679;28;45618;-73
2023/07/03 11:23:06;;;;;;;;;5.33;3.67;;;;;25.48;43.13;101189.94;5043126;28;46217;-73
2023/07/03 11:25:49;;;;;;;;;4.67;3.67;;;;;25.47;42.76;101185.53;5039364;28;46094;-73
2023/07/03 11:28:32;;;;;;;;;2.67;2.67;;;;;25.46;43.30;101183.84;5045626;28;45582;-73
2023/07/03 11:30:59;;;;;;;;;3.00;3.00;;;;;25.42;43.07;101175.16;5043335;28;45549;-74
2023/07/03 11:33:26;;;;;;;;;6.00;4.33;;;;;25.44;42.85;101184.00;5044471;28;45939;-73
2023/07/03 11:35:56;;;;;;;;;1.00;0.67;;;;;25.44;42.93;101185.88;5039070;28;46144;-74
2023/07/03 11:38:23;;;;;;;;;6.67;4.33;;;;;25.43;42.65;101176.03;5048801;28;45637;-74
2023/07/03 11:40:54;;;;;;;;;3.33;3.33;;;;;25.44;42.32;101183.16;5049495;28;45398;-73
2023/07/03 11:43:33;;;;;;;;;5.67;4.33;;;;;25.45;42.64;101174.84;5052586;28;46385;-74
2023/07/03 11:46:06;;;;;;;;;6.00;6.00;;;;;25.48;42.40;101173.66;5053882;28;45434;-74
2023/07/03 11:48:31;;;;;;;;;6.33;4.67;;;;;25.49;42.83;101167.19;5049110;28;45423;-74
2023/07/03 11:51:12;;;;;;;;;5.00;5.00;;;;;25.49;42.35;101184.34;5048658;28;46175;-74
2023/07/03 11:53:39;;;;;;;;;4.33;3.33;;;;;25.51;42.44;101181.47;5044987;28;47246;-75
2023/07/03 11:56:12;;;;;;;;;5.33;4.33;;;;;25.52;42.36;101175.88;5045676;28;45625;-75
2023/07/03 11:58:37;;;;;;;;;4.00;3.00;;;;;25.52;42.27;101167.72;5049891;28;45510;-74
2023/07/03 12:01:21;;;;;;;;;4.00;3.50;;;;;25.55;42.10;101177.41;5044423;28;45461;-74
2023/07/03 12:03:52;;;;;;;;;3.00;3.00;;;;;25.53;41.91;101169.41;5052381;28;46387;-74
2023/07/03 12:06:42;;;;;;;;;4.00;4.00;;;;;25.57;41.87;101178.09;5051047;28;45508;-74
2023/07/03 12:09:30;;;;;;;;;4.00;4.00;;;;;25.56;40.90;101179.09;5052707;28;45618;-74
2023/07/03 12:12:06;;;;;;;;;3.33;3.33;;;;;25.58;40.96;101182.50;5053058;28;45398;-75
2023/07/03 12:14:46;;;;;;;;;3.33;2.67;;;;;25.59;41.61;101173.31;5049656;28;46341;-74
2023/07/03 12:17:24;;;;;;;;;5.67;4.33;;;;;25.56;41.37;101179.09;5053713;28;45447;-74
2023/07/03 12:20:06;;;;;;;;;3.33;3.00;;;;;25.60;41.06;101185.03;5047405;28;45655;-74
2023/07/03 12:22:38;;;;;;;;;3.67;3.67;;;;;25.60;40.78;101179.59;5052311;28;45592;-76
2023/07/03 12:25:12;;;;;;;;;5.00;5.00;;;;;25.59;40.91;101175.19;5051752;28;45630;-75
2023/07/03 12:27:39;;;;;;;;;4.33;4.00;;;;;25.61;40.97;101179.44;5051656;28;45548;-73
2023/07/03 12:30:09;;;;;;;;;4.67;4.67;;;;;25.62;41.10;101167.53;5046186;28;45383;-72
2023/07/03 12:32:35;;;;;;;;;4.00;4.00;;;;;25.64;41.06;101183.69;5048293;28;45729;-74
2023/07/03 12:35:23;;;;;;;;;4.67;4.67;;;;;25.64;40.98;101189.13;5052597;28;47247;-73
2023/07/03 12:37:56;;;;;;;;;4.00;4.00;;;;;25.65;40.42;101177.22;5051007;28;45661;-73
2023/07/03 12:40:24;;;;;;;;;6.33;4.33;;;;;25.65;40.23;101188.94;5054067;28;45530;-73
2023/07/03 12:42:52;;;;;;;;;3.33;3.33;;;;;25.66;40.38;101181.63;5044734;28;45571;-73
2023/07/03 12:45:24;;;;;;;;;7.33;4.67;;;;;25.67;40.54;101177.06;5051653;28;45514;-72
2023/07/03 12:48:01;;;;;;;;;5.00;4.00;;;;;25.65;40.40;101167.22;5048774;28;45476;-71
2023/07/03 12:50:26;;;;;;;;;5.00;4.00;;;;;25.65;40.45;101186.22;5053128;28;45487;-74
2023/07/03 12:52:59;;;;;;;;;4.67;4.00;;;;;25.67;40.40;101175.19;5052893;28;45555;-75
2023/07/03 12:55:30;;;;;;;;;5.00;4.33;;;;;25.64;40.07;101167.38;5053897;28;45775;-70
2023/07/03 12:57:55;;;;;;;;;5.67;3.67;;;;;25.68;40.16;101181.47;5051148;28;45455;-73
2023/07/03 13:00:28;;;;;;;;;4.67;4.67;;;;;25.69;39.61;101181.28;5051976;28;45466;-70
2023/07/03 13:03:07;;;;;;;;;4.33;3.33;;;;;25.69;39.67;101177.72;5053253;28;45423;-71
2023/07/03 13:05:35;;;;;;;;;5.33;4.00;;;;;25.68;39.80;101171.44;5052104;28;46324;-73
2023/07/03 13:08:03;;;;;;;;;4.00;3.33;;;;;25.67;39.67;101158.88;5052344;28;45451;-73
2023/07/03 13:10:29;;;;;;;;;4.33;4.33;;;;;25.67;39.49;101163.47;5052601;28;45779;-74
2023/07/03 13:13:06;;;;;;;;;3.00;3.00;;;;;25.69;39.69;101181.28;5041299;28;46268;-73
2023/07/03 13:15:40;;;;;;;;;5.33;5.00;;;;;25.70;39.34;101168.56;5052972;28;46064;-74
2023/07/03 13:18:12;;;;;;;;;3.33;3.00;;;;;25.69;39.51;101161.41;5052565;28;45403;-73
2023/07/03 13:20:38;;;;;;;;;4.00;4.00;;;;;25.68;39.46;101157.84;5043936;28;45514;-72
2023/07/03 13:23:06;;;;;;;;;4.00;4.00;;;;;25.64;39.20;101148.34;5050083;28;45938;-70
2023/07/03 13:25:37;;;;;;;;;6.00;5.00;;;;;25.69;39.74;101164.13;5046899;28;46208;-70
2023/07/03 13:28:07;;;;;;;;;4.67;4.67;;;;;25.70;39.02;101166.66;5045941;28;45680;-70
2023/07/03 13:30:39;;;;;;;;;3.00;3.00;;;;;25.70;39.81;101153.09;5052361;28;45497;-71
2023/07/03 13:33:12;;;;;;;;;3.00;3.00;;;;;25.68;39.13;101144.25;5049773;28;45622;-71
2023/07/03 13:35:37;;;;;;;;;4.00;2.33;;;;;25.71;39.11;101154.78;5048991;28;46854;-71
2023/07/03 13:38:30;;;;;;;;;3.67;3.00;;;;;25.71;39.28;101157.50;5040632;28;45542;-71
2023/07/03 13:40:58;;;;;;;;;4.00;4.00;;;;;25.71;38.94;101141.19;5040081;28;45609;-75
2023/07/03 13:43:29;;;;;;;;;3.33;2.00;;;;;25.71;39.96;101140.34;5064648;28;45543;-75
2023/07/03 13:45:55;;;;;;;;;1.00;1.00;;;;;25.73;39.88;101135.56;5038216;28;45695;-73
2023/07/03 13:48:21;;;;;;;;;4.67;3.33;;;;;25.72;39.60;101134.75;5052693;28;45922;-74
2023/07/03 13:50:52;;;;;;;;;5.67;4.33;;;;;25.78;40.56;101142.19;5048479;28;46089;-74
2023/07/03 13:53:21;;;;;;;;;2.67;2.67;;;;;25.77;40.43;101128.78;5052284;28;45519;-75
2023/07/03 13:55:47;;;;;;;;;3.33;3.33;;;;;25.82;40.42;101139.97;5042474;28;46412;-77
2023/07/03 13:58:13;;;;;;;;;4.00;4.00;;;;;25.83;40.30;101144.38;5046896;28;45424;-77
2023/07/03 14:00:39;;;;;;;;;3.67;3.00;;;;;25.83;40.66;101138.09;5048090;28;45379;-77
2023/07/03 14:03:04;;;;;;;;;3.00;3.00;;;;;25.85;40.64;101142.34;5041906;28;45380;-77
2023/07/03 14:05:29;;;;;;;;;3.00;3.00;;;;;25.87;40.66;101140.28;5050182;28;48626;-78
2023/07/03 14:07:57;;;;;;;;;5.33;4.00;;;;;25.88;41.00;101147.41;5044653;28;45475;-77
2023/07/03 14:10:23;;;;;;;;;3.00;3.00;;;;;25.91;40.62;101149.78;5054730;28;45508;-74
2023/07/03 14:12:48;;;;;;;;;4.00;3.00;;;;;25.85;41.37;101139.63;5051705;28;46007;-74
2023/07/03 14:15:25;;;;;;;;;4.00;2.00;;;;;25.93;41.18;101138.75;5049803;28;46179;-76
2023/07/03 14:17:51;;;;;;;;;3.33;3.33;;;;;25.92;41.57;101142.50;5042750;28;45682;-78
2023/07/03 14:20:16;;;;;;;;;3.33;3.33;;;;;25.96;41.50;101151.16;5046345;28;45501;-76
2023/07/03 14:22:41;;;;;;;;;4.00;4.00;;;;;25.88;41.74;101133.81;5041692;28;45439;-73
2023/07/03 14:25:09;;;;;;;;;4.00;3.67;;;;;25.98;41.61;101146.38;5035756;28;46117;-75
2023/07/03 14:27:37;;;;;;;;;4.00;3.00;;;;;25.99;41.37;101131.78;5044205;28;45387;-75
2023/07/03 14:30:07;;;;;;;;;2.67;2.67;;;;;25.99;41.34;101146.19;5050360;28;45571;-77
2023/07/03 14:32:33;;;;;;;;;3.00;3.00;;;;;25.99;41.60;101140.75;5052029;28;46112;-72
2023/07/03 14:35:00;;;;;;;;;4.67;4.00;;;;;26.01;39.15;101136.00;5052579;28;46128;-73
2023/07/03 14:37:26;;;;;;;;;4.67;3.67;;;;;26.02;38.31;101139.56;5054447;28;45411;-74
2023/07/03 14:39:51;;;;;;;;;4.00;4.00;;;;;26.02;38.22;101139.56;5045895;28;45601;-73
2023/07/03 14:42:17;;;;;;;;;2.00;2.00;;;;;26.01;38.33;101143.31;5044023;28;45757;-73
2023/07/03 14:44:42;;;;;;;;;4.00;4.00;;;;;26.00;38.10;101141.63;5050482;28;48672;-72
2023/07/03 14:47:07;;;;;;;;;4.00;4.00;;;;;25.99;38.73;101140.75;5048603;28;45797;-72
2023/07/03 14:49:33;;;;;;;;;5.00;4.00;;;;;25.97;38.59;101137.38;5048796;28;61810;-74
2023/07/03 14:51:58;;;;;;;;;6.00;4.67;;;;;25.96;38.61;101130.25;5045141;28;53059;-73
2023/07/03 14:54:24;;;;;;;;;3.00;3.00;;;;;25.95;38.79;101123.09;5052438;28;56029;-73
2023/07/03 14:56:50;;;;;;;;;4.00;4.00;;;;;25.97;38.13;101122.91;5044408;28;45533;-71
2023/07/03 14:59:16;;;;;;;;;4.00;4.00;;;;;25.94;38.50;101126.84;5054382;28;45455;-73
2023/07/03 15:01:41;;;;;;;;;5.00;3.67;;;;;25.94;38.07;101137.72;5046023;28;45408;-71
2023/07/03 15:04:09;;;;;;;;;4.33;3.33;;;;;25.95;37.99;101119.53;5053620;28;46131;-70
2023/07/03 15:06:34;;;;;;;;;7.00;4.00;;;;;25.94;38.54;101124.13;5044003;28;45739;-71
2023/07/03 15:09:00;;;;;;;;;4.67;3.33;;;;;25.94;37.86;101124.13;5048157;28;45329;-72
2023/07/03 15:11:25;;;;;;;;;7.00;4.33;;;;;25.95;38.36;101116.81;5042516;28;45449;-73
2023/07/03 15:13:51;;;;;;;;;6.00;4.33;;;;;25.96;38.17;101129.41;5036436;28;45408;-73
2023/07/03 15:16:16;;;;;;;;;5.00;4.00;;;;;25.95;38.40;101135.84;5045815;28;52008;-71
2023/07/03 15:18:41;;;;;;;;;3.00;3.00;;;;;25.96;37.59;101126.66;5054351;28;45376;-71
2023/07/03 15:21:07;;;;;;;;;5.00;5.00;;;;;25.96;37.75;101121.22;5040924;28;53491;-70
2023/07/03 15:23:32;;;;;;;;;6.67;5.00;;;;;25.94;37.84;101121.41;5050041;28;62179;-71
2023/07/03 15:26:07;;;;;;;;;4.00;3.67;;;;;25.93;38.25;101133.31;5051146;28;45840;-71
2023/07/03 15:28:32;;;;;;;;;5.00;5.00;;;;;25.95;37.71;101127.69;5048888;28;45446;-70
2023/07/03 15:30:58;;;;;;;;;5.00;4.67;;;;;25.95;38.09;101122.25;5037464;28;46050;-73
2023/07/03 15:33:24;;;;;;;;;6.00;6.00;;;;;25.95;37.94;101114.94;5039906;28;52175;-71
2023/07/03 15:35:54;;;;;;;;;5.00;5.00;;;;;25.94;38.29;101115.97;5041585;28;45597;-71
2023/07/03 15:38:20;;;;;;;;;7.67;6.00;;;;;25.95;38.14;101125.81;5053599;28;45495;-72
2023/07/03 15:40:56;;;;;;;;;6.00;6.00;;;;;25.93;38.30;101117.00;5041101;28;45495;-71
2023/07/03 15:43:22;;;;;;;;;5.00;5.00;;;;;25.95;37.99;101124.97;5034823;28;45562;-71
2023/07/03 15:46:16;;;;;;;;;6.00;6.00;;;;;25.95;37.60;101119.53;5051998;28;45486;-73
2023/07/03 15:48:43;;;;;;;;;4.00;4.00;;;;;25.94;37.49;101118.69;5043606;28;45376;-71
2023/07/03 15:51:10;;;;;;;;;4.33;4.33;;;;;25.94;37.79;101113.25;5054252;28;45478;-71
2023/07/03 15:53:36;;;;;;;;;7.00;5.67;;;;;25.96;37.55;101115.78;5051909;28;45414;-71
2023/07/03 15:56:03;;;;;;;;;7.33;6.00;;;;;25.95;38.35;101109.50;5052579;28;45534;-72
2023/07/03 15:58:31;;;;;;;;;8.00;8.00;;;;;25.95;38.18;101111.38;5052429;28;45878;-72
2023/07/03 16:00:59;;;;;;;;;7.33;6.33;;;;;25.94;38.08;101107.81;5049990;28;45578;-72
2023/07/03 16:03:25;;;;;;;;;9.33;6.67;;;;;25.94;38.21;101115.13;5052880;28;45414;-72
2023/07/03 16:06:03;;;;;;;;;6.33;5.00;;;;;25.91;38.24;101125.31;5053942;28;45368;-71
2023/07/03 16:08:31;;;;;;;;;7.00;5.33;;;;;25.90;38.07;101112.75;5051056;28;45511;-71
2023/07/03 16:10:56;;;;;;;;;8.00;6.00;;;;;25.90;37.95;101114.63;5040315;28;45569;-72
2023/07/03 16:13:24;;;;;;;;;8.00;5.00;;;;;25.88;37.74;101113.97;5045421;28;45500;-72
2023/07/03 16:15:50;;;;;;;;;5.00;5.00;;;;;25.87;37.96;101118.53;5059489;28;45534;-71
2023/07/03 16:18:15;;;;;;;;;8.00;7.00;;;;;25.86;37.35;101113.28;5046502;28;45460;-71
2023/07/03 16:20:40;;;;;;;;;8.67;7.00;;;;;25.86;37.84;101114.13;5039979;28;45496;-69
2023/07/03 16:23:07;;;;;;;;;7.00;7.00;;;;;25.85;38.07;101108.84;5041829;28;46380;-70
2023/07/03 16:25:34;;;;;;;;;8.00;8.00;;;;;25.85;38.09;101107.00;5043584;28;45503;-70
2023/07/03 16:28:00;;;;;;;;;7.67;7.00;;;;;25.84;37.84;101105.31;5050984;28;45447;-72
2023/07/03 16:30:26;;;;;;;;;7.33;7.00;;;;;25.87;38.11;101106.84;5042135;28;45326;-70
2023/07/03 16:32:51;;;;;;;;;10.00;8.67;;;;;25.88;37.87;101113.97;5046161;28;46231;-71
2023/07/03 16:35:17;;;;;;;;;10.33;9.00;;;;;25.89;38.04;101111.06;5049136;28;45430;-71
2023/07/03 16:37:43;;;;;;;;;7.00;7.00;;;;;25.90;37.62;101110.03;5037531;28;45717;-71
2023/07/03 16:40:09;;;;;;;;;8.00;8.00;;;;;25.92;37.87;101104.44;5050612;28;45690;-71
2023/07/03 16:42:35;;;;;;;;;8.00;8.00;;;;;25.92;37.85;101105.25;5045510;28;46632;-72
2023/07/03 16:45:00;;;;;;;;;9.00;7.00;;;;;25.92;38.14;101107.16;5046409;28;50592;-71
2023/07/03 16:47:26;;;;;;;;;9.00;6.67;;;;;25.94;37.79;101099.66;5053239;28;45482;-71
2023/07/03 16:49:51;;;;;;;;;7.33;7.00;;;;;25.94;38.36;101101.53;5050212;28;45407;-71
2023/07/03 16:52:16;;;;;;;;;8.33;6.67;;;;;25.93;38.23;101092.53;5041976;28;53122;-71
2023/07/03 16:54:42;;;;;;;;;7.33;7.33;;;;;25.92;37.96;101079.97;5042879;28;56933;-73
2023/07/03 16:57:07;;;;;;;;;8.00;6.67;;;;;25.94;38.16;101094.22;5041538;28;45721;-71
2023/07/03 16:59:32;;;;;;;;;7.67;7.00;;;;;25.94;38.57;101094.22;5050882;28;53955;-71
2023/07/03 17:01:57;;;;;;;;;6.33;6.33;;;;;25.94;38.47;101093.38;5050921;28;55133;-72
2023/07/03 17:04:23;;;;;;;;;6.67;6.00;;;;;25.94;37.78;101094.22;5052907;28;45470;-74
2023/07/03 17:06:48;;;;;;;;;6.33;6.33;;;;;25.95;38.40;101097.78;5037645;28;45868;-73
2023/07/03 17:09:18;;;;;;;;;7.00;5.33;;;;;25.94;38.25;101094.22;5049511;28;45552;-71
2023/07/03 17:11:43;;;;;;;;;7.00;7.00;;;;;25.94;38.18;101099.66;5040967;28;46014;-72
2023/07/03 17:14:09;;;;;;;;;10.33;9.00;;;;;25.92;38.40;101094.38;5045210;28;45564;-72
2023/07/03 17:16:34;;;;;;;;;7.00;6.00;;;;;25.91;37.87;101094.56;5048494;28;46176;-71